createdAt,value
2017-12-04T00:00:09.425Z,28.80
2017-12-04T00:02:36.902Z,29.93
2017-12-04T00:05:04.444Z,34.70
2017-12-04T00:07:31.933Z,32.03
2017-12-04T00:09:59.453Z,32.70
2017-12-04T00:12:26.959Z,36.10
2017-12-04T00:14:55.227Z,22.90
2017-12-04T00:17:22.716Z,34.20
2017-12-04T00:19:50.236Z,27.77
2017-12-04T00:22:17.788Z,34.97
2017-12-04T00:24:45.274Z,35.83
2017-12-04T00:27:13.653Z,25.67
2017-12-04T00:29:41.176Z,39.90
2017-12-04T00:32:08.685Z,35.90
2017-12-04T00:34:36.962Z,30.67
2017-12-04T00:37:05.282Z,31.27
2017-12-04T00:39:32.765Z,27.10
2017-12-04T00:42:00.329Z,29.50
2017-12-04T00:44:27.867Z,40.50
2017-12-04T00:46:55.381Z,36.77
2017-12-04T00:49:22.860Z,31.50
2017-12-04T00:51:50.357Z,35.07
2017-12-04T00:54:17.905Z,36.77
2017-12-04T00:56:45.398Z,23.90
2017-12-04T00:59:12.897Z,32.13
2017-12-04T01:01:40.398Z,35.63
2017-12-04T01:04:07.907Z,37.50
2017-12-04T01:06:35.413Z,38.87
2017-12-04T01:09:02.929Z,31.20
2017-12-04T01:11:30.429Z,39.30
2017-12-04T01:13:57.928Z,28.53
2017-12-04T01:16:25.438Z,38.07
2017-12-04T01:18:52.944Z,31.70
2017-12-04T01:21:20.434Z,39.10
2017-12-04T01:23:48.705Z,40.53
2017-12-04T01:26:16.183Z,34.40
2017-12-04T01:28:43.708Z,40.07
2017-12-04T01:31:11.227Z,37.67
2017-12-04T01:33:38.743Z,33.90
2017-12-04T01:36:06.259Z,37.50
2017-12-04T01:38:33.761Z,32.27
2017-12-04T01:41:01.226Z,32.47
2017-12-04T01:43:28.746Z,27.40
2017-12-04T01:45:56.235Z,37.60
2017-12-04T01:48:23.749Z,38.43
2017-12-04T01:50:51.244Z,33.90
2017-12-04T01:53:18.728Z,36.20
2017-12-04T01:55:46.481Z,25.97
2017-12-04T01:58:14.000Z,32.60
2017-12-04T02:00:41.496Z,34.33
2017-12-04T02:03:09.028Z,42.57
2017-12-04T02:05:36.531Z,27.70
2017-12-04T02:08:04.034Z,34.73
2017-12-04T02:10:31.514Z,35.80
2017-12-04T02:12:59.026Z,32.97
2017-12-04T02:15:26.511Z,29.50
2017-12-04T02:17:54.010Z,37.17
2017-12-04T02:20:21.526Z,32.50
2017-12-04T02:22:49.020Z,25.57
2017-12-04T02:25:16.523Z,35.87
2017-12-04T02:27:44.019Z,33.30
2017-12-04T02:30:11.526Z,36.13
2017-12-04T02:32:39.771Z,30.90
2017-12-04T02:35:07.236Z,34.07
2017-12-04T02:37:34.796Z,30.60
2017-12-04T02:40:02.335Z,39.60
2017-12-04T02:42:29.847Z,28.97
2017-12-04T02:44:57.331Z,37.90
2017-12-04T02:47:24.802Z,38.30
2017-12-04T02:49:52.327Z,34.63
2017-12-04T02:52:19.829Z,30.70
2017-12-04T02:54:47.336Z,32.23
2017-12-04T02:57:14.836Z,34.50
2017-12-04T02:59:42.322Z,31.90
2017-12-04T03:02:09.810Z,34.23
2017-12-04T03:04:37.306Z,37.70
2017-12-04T03:07:04.816Z,36.27
2017-12-04T03:09:33.078Z,31.50
2017-12-04T03:12:01.342Z,31.07
2017-12-04T03:14:28.838Z,33.20
2017-12-04T03:16:56.323Z,28.43
2017-12-04T03:19:23.806Z,31.63
2017-12-04T03:21:51.328Z,31.20
2017-12-04T03:24:18.851Z,43.80
2017-12-04T03:26:47.118Z,34.07
2017-12-04T03:29:14.624Z,27.73
2017-12-04T03:31:42.124Z,32.60
2017-12-04T03:34:09.656Z,40.17
2017-12-04T03:36:37.128Z,33.03
2017-12-04T03:39:04.653Z,35.27
2017-12-04T03:41:32.130Z,28.17
2017-12-04T03:43:59.642Z,29.37
2017-12-04T03:46:27.152Z,25.90
2017-12-04T03:48:54.622Z,30.97
2017-12-04T03:51:22.126Z,32.87
2017-12-04T03:53:49.629Z,19.10
2017-12-04T03:56:17.154Z,28.47
2017-12-04T03:58:44.666Z,27.37
2017-12-04T04:01:12.944Z,31.70
2017-12-04T04:03:41.211Z,33.67
2017-12-04T04:06:08.723Z,31.10
2017-12-04T04:08:36.227Z,26.20
2017-12-04T04:11:03.740Z,29.60
2017-12-04T04:13:31.224Z,32.90
2017-12-04T04:15:58.730Z,36.13
2017-12-04T04:18:26.243Z,30.70
2017-12-04T04:20:54.011Z,25.90
2017-12-04T04:23:21.511Z,31.43
2017-12-04T04:25:49.737Z,27.90
2017-12-04T04:28:17.256Z,31.17
2017-12-04T04:30:44.743Z,25.77
2017-12-04T04:33:12.236Z,29.20
2017-12-04T04:35:39.743Z,29.67
2017-12-04T04:38:07.236Z,25.90
2017-12-04T04:40:34.759Z,24.17
2017-12-04T04:43:02.507Z,27.83
2017-12-04T04:45:30.001Z,25.20
2017-12-04T04:47:57.485Z,24.23
2017-12-04T04:50:24.968Z,27.93
2017-12-04T04:52:52.545Z,24.93
2017-12-04T04:55:19.949Z,28.03
2017-12-04T04:57:47.506Z,33.10
2017-12-04T05:00:15.009Z,27.17
2017-12-04T05:02:42.505Z,28.33
2017-12-04T05:05:09.993Z,28.93
2017-12-04T05:07:38.251Z,35.10
2017-12-04T05:10:05.774Z,36.90
2017-12-04T05:12:33.324Z,31.73
2017-12-04T05:15:00.815Z,34.10
2017-12-04T05:17:28.323Z,23.83
2017-12-04T05:19:55.811Z,32.33
2017-12-04T05:22:23.312Z,33.93
2017-12-04T05:24:51.357Z,29.33
2017-12-04T05:27:20.768Z,29.87
2017-12-04T05:29:49.097Z,25.63
2017-12-04T05:32:16.596Z,26.00
2017-12-04T05:34:44.161Z,27.30
2017-12-04T05:37:11.695Z,27.97
2017-12-04T05:39:39.975Z,33.20
2017-12-04T05:42:07.507Z,38.30
2017-12-04T05:44:34.979Z,45.47
2017-12-04T05:47:02.727Z,35.10
2017-12-04T05:49:30.461Z,30.03
2017-12-04T05:51:58.758Z,30.20
2017-12-04T05:54:26.261Z,31.10
2017-12-04T05:56:54.314Z,35.07
2017-12-04T05:59:21.884Z,31.07
2017-12-04T06:01:49.403Z,29.37
2017-12-04T06:04:16.916Z,34.27
2017-12-04T06:06:44.432Z,27.23
2017-12-04T06:09:11.932Z,31.90
2017-12-04T06:11:39.498Z,34.13
2017-12-04T06:14:07.033Z,40.00
2017-12-04T06:16:34.556Z,31.63
2017-12-04T06:19:02.866Z,36.90
2017-12-04T06:21:32.253Z,35.47
2017-12-04T06:23:59.928Z,26.93
2017-12-04T06:26:27.486Z,38.67
2017-12-04T06:28:54.993Z,33.80
2017-12-04T06:31:22.540Z,33.80
2017-12-04T06:33:50.151Z,36.27
2017-12-04T06:36:17.651Z,32.37
2017-12-04T06:38:46.015Z,38.93
2017-12-04T06:41:13.505Z,34.03
2017-12-04T06:43:41.001Z,38.80
2017-12-04T06:46:08.511Z,33.40
2017-12-04T06:48:36.008Z,43.63
2017-12-04T06:51:03.562Z,33.90
2017-12-04T06:53:31.045Z,32.53
2017-12-04T06:55:58.616Z,26.60
2017-12-04T06:58:28.621Z,29.20
2017-12-04T07:00:56.201Z,41.83
2017-12-04T07:03:23.714Z,45.53
2017-12-04T07:05:51.966Z,29.30
2017-12-04T07:08:19.484Z,42.23
2017-12-04T07:10:47.019Z,31.63
2017-12-04T07:13:14.506Z,27.47
2017-12-04T07:15:42.035Z,39.73
2017-12-04T07:18:09.521Z,35.93
2017-12-04T07:20:37.063Z,41.73
2017-12-04T07:23:04.599Z,28.13
2017-12-04T07:25:32.111Z,32.53
2017-12-04T07:27:59.617Z,25.03
2017-12-04T07:30:27.117Z,40.90
2017-12-04T07:32:54.639Z,32.00
2017-12-04T07:35:22.177Z,33.97
2017-12-04T07:37:50.106Z,35.10
2017-12-04T07:40:17.615Z,30.57
2017-12-04T07:42:45.109Z,30.90
2017-12-04T07:45:12.592Z,27.03
2017-12-04T07:47:40.163Z,32.00
2017-12-04T07:50:08.462Z,34.47
2017-12-04T07:52:36.522Z,28.37
2017-12-04T07:55:04.758Z,30.13
2017-12-04T07:57:32.242Z,28.80
2017-12-04T07:59:59.962Z,25.30
2017-12-04T08:02:27.446Z,27.80
2017-12-04T08:04:54.936Z,28.23
2017-12-04T08:07:23.195Z,25.63
2017-12-04T08:09:50.720Z,29.97
2017-12-04T08:12:18.211Z,26.70
2017-12-04T08:14:45.716Z,30.00
2017-12-04T08:17:13.210Z,22.00
2017-12-04T08:19:40.752Z,22.73
2017-12-04T08:22:08.234Z,25.90
2017-12-04T08:24:35.722Z,17.20
2017-12-04T08:27:03.990Z,21.60
2017-12-04T08:29:32.257Z,27.83
2017-12-04T08:32:00.526Z,22.70
2017-12-04T08:34:28.015Z,21.40
2017-12-04T08:36:56.273Z,22.97
2017-12-04T08:39:23.738Z,21.40
2017-12-04T08:41:52.022Z,22.80
2017-12-04T08:44:19.672Z,27.20
2017-12-04T08:46:47.933Z,28.13
2017-12-04T08:49:15.446Z,18.27
2017-12-04T08:51:43.806Z,26.70
2017-12-04T08:54:11.306Z,18.90
2017-12-04T08:56:38.784Z,26.10
2017-12-04T08:59:06.313Z,31.00
2017-12-04T09:01:33.799Z,31.57
2017-12-04T09:04:01.289Z,30.93
2017-12-04T09:06:28.837Z,28.13
2017-12-04T09:08:57.150Z,27.13
2017-12-04T09:11:24.695Z,24.03
2017-12-04T09:13:52.271Z,31.93
2017-12-04T09:16:19.803Z,33.37
2017-12-04T09:18:47.381Z,33.90
2017-12-04T09:21:14.889Z,35.73
2017-12-04T09:23:42.398Z,31.07
2017-12-04T09:26:09.923Z,26.47
2017-12-04T09:28:38.175Z,27.27
2017-12-04T09:31:05.672Z,33.77
2017-12-04T09:33:33.192Z,34.47
2017-12-04T09:36:00.665Z,33.83
2017-12-04T09:38:28.185Z,30.97
2017-12-04T09:40:55.684Z,41.67
2017-12-04T09:43:23.209Z,40.03
2017-12-04T09:45:50.680Z,27.40
2017-12-04T09:48:18.182Z,37.20
2017-12-04T09:50:45.676Z,33.33
2017-12-04T09:53:13.157Z,33.20
2017-12-04T09:55:40.650Z,30.17
2017-12-04T09:58:08.391Z,41.33
2017-12-04T10:00:35.966Z,33.03
2017-12-04T10:03:03.450Z,32.10
2017-12-04T10:05:30.944Z,33.93
2017-12-04T10:07:58.437Z,35.00
2017-12-04T10:10:26.673Z,30.90
2017-12-04T10:12:54.147Z,38.17
2017-12-04T10:15:21.660Z,28.97
2017-12-04T10:17:49.150Z,21.80
2017-12-04T10:20:16.647Z,25.10
2017-12-04T10:22:44.172Z,22.90
2017-12-04T10:25:11.675Z,39.07
2017-12-04T10:27:39.210Z,14.40
2017-12-04T10:30:06.704Z,26.00
2017-12-04T10:32:34.206Z,28.23
2017-12-04T10:35:01.681Z,20.73
2017-12-04T10:37:29.955Z,22.03
2017-12-04T10:39:58.243Z,24.60
2017-12-04T10:42:26.506Z,21.33
2017-12-04T10:44:54.761Z,38.70
2017-12-04T10:47:22.261Z,30.40
2017-12-04T10:49:49.761Z,17.90
2017-12-04T10:52:17.267Z,33.30
2017-12-04T10:54:45.564Z,27.17
2017-12-04T10:57:13.154Z,24.90
2017-12-04T10:59:40.702Z,29.10
2017-12-04T11:02:09.213Z,28.77
2017-12-04T11:04:36.754Z,30.80
2017-12-04T11:07:04.254Z,26.80
2017-12-04T11:09:32.508Z,23.57
2017-12-04T11:11:59.985Z,29.03
2017-12-04T11:14:27.476Z,25.10
2017-12-04T11:16:54.966Z,23.90
2017-12-04T11:19:22.424Z,25.73
2017-12-04T11:21:50.180Z,28.00
2017-12-04T11:24:17.682Z,30.30
2017-12-04T11:26:45.207Z,22.77
2017-12-04T11:29:12.765Z,29.50
2017-12-04T11:31:40.272Z,20.47
2017-12-04T11:34:07.765Z,26.20
2017-12-04T11:36:36.037Z,24.60
2017-12-04T11:39:03.514Z,27.23
2017-12-04T11:41:31.262Z,26.40
2017-12-04T11:43:58.737Z,21.13
2017-12-04T11:46:26.285Z,29.30
2017-12-04T11:48:53.756Z,19.50
2017-12-04T11:51:21.249Z,25.93
2017-12-04T11:53:49.511Z,19.53
2017-12-04T11:56:16.996Z,23.83
2017-12-04T11:58:44.500Z,22.07
2017-12-04T12:01:11.965Z,19.30
2017-12-04T12:03:39.465Z,20.40
2017-12-04T12:06:06.955Z,19.60
2017-12-04T12:08:34.437Z,23.33
2017-12-04T12:11:01.945Z,25.70
2017-12-04T12:13:29.436Z,20.70
2017-12-04T12:15:56.942Z,20.97
2017-12-04T12:18:24.451Z,20.23
2017-12-04T12:20:51.935Z,19.63
2017-12-04T12:23:19.426Z,23.37
2017-12-04T12:25:46.908Z,18.87
2017-12-04T12:28:14.393Z,20.27
2017-12-04T12:30:41.901Z,19.63
2017-12-04T12:33:09.399Z,24.40
2017-12-04T12:35:36.975Z,17.53
2017-12-04T12:38:04.468Z,27.43
2017-12-04T12:40:31.976Z,22.50
2017-12-04T12:42:59.477Z,22.00
2017-12-04T12:45:27.752Z,18.97
2017-12-04T12:47:55.245Z,15.30
2017-12-04T12:50:22.800Z,19.43
2017-12-04T12:52:50.287Z,17.20
2017-12-04T12:55:17.793Z,21.53
2017-12-04T12:57:46.132Z,26.13
2017-12-04T13:00:13.979Z,21.03
2017-12-04T13:02:41.514Z,25.23
2017-12-04T13:05:09.014Z,24.03
2017-12-04T13:07:36.677Z,15.10
2017-12-04T13:10:04.177Z,25.90
2017-12-04T13:12:31.676Z,25.43
2017-12-04T13:14:59.941Z,23.13
2017-12-04T13:17:27.425Z,22.80
2017-12-04T13:19:55.260Z,26.40
2017-12-04T13:22:22.812Z,25.63
2017-12-04T13:24:50.302Z,22.37
2017-12-04T13:27:17.808Z,28.93
2017-12-04T13:29:45.298Z,21.37
2017-12-04T13:32:24.543Z,24.37
2017-12-04T13:35:03.796Z,23.20
2017-12-04T13:37:32.201Z,23.37
2017-12-04T13:39:59.781Z,24.07
2017-12-04T13:42:28.056Z,20.37
2017-12-04T13:44:56.557Z,32.30
2017-12-04T13:47:24.063Z,35.93
2017-12-04T13:49:51.569Z,66.17
2017-12-04T13:52:19.085Z,45.00
2017-12-04T13:54:47.365Z,34.30
2017-12-04T13:57:15.656Z,24.07
2017-12-04T13:59:43.149Z,26.43
2017-12-04T14:02:10.684Z,27.10
2017-12-04T14:04:38.187Z,22.47
2017-12-04T14:07:05.700Z,26.77
2017-12-04T14:09:33.180Z,18.97
2017-12-04T14:12:00.683Z,33.27
2017-12-04T14:14:28.167Z,27.70
2017-12-04T14:16:55.680Z,24.93
2017-12-04T14:19:23.189Z,27.00
2017-12-04T14:21:50.701Z,27.53
2017-12-04T14:24:18.205Z,28.03
2017-12-04T14:26:45.701Z,31.00
2017-12-04T14:29:14.270Z,28.70
2017-12-04T14:31:41.772Z,20.57
2017-12-04T14:34:09.263Z,29.03
2017-12-04T14:36:36.772Z,20.40
2017-12-04T14:39:04.266Z,27.03
2017-12-04T14:41:32.562Z,29.83
2017-12-04T14:44:00.052Z,36.27
2017-12-04T14:46:27.558Z,36.90
2017-12-04T14:48:55.068Z,36.43
2017-12-04T14:51:22.573Z,23.97
2017-12-04T14:53:50.858Z,28.57
2017-12-04T14:56:18.370Z,21.43
2017-12-04T14:58:45.866Z,86.03
2017-12-04T15:01:13.434Z,42.27
2017-12-04T15:03:40.941Z,36.60
2017-12-04T15:06:08.430Z,36.17
2017-12-04T15:08:36.672Z,27.97
2017-12-04T15:11:04.182Z,30.30
2017-12-04T15:13:31.684Z,38.30
2017-12-04T15:15:59.171Z,33.37
2017-12-04T15:18:26.667Z,58.63
2017-12-04T15:20:54.187Z,45.97
2017-12-04T15:23:21.677Z,42.63
2017-12-04T15:25:49.162Z,81.70
2017-12-04T15:28:16.708Z,39.90
2017-12-04T15:30:44.198Z,68.57
2017-12-04T15:33:11.682Z,47.70
2017-12-04T15:35:40.464Z,56.90
2017-12-04T15:38:08.769Z,54.87
2017-12-04T15:40:36.259Z,42.03
2017-12-04T15:43:03.788Z,40.20
2017-12-04T15:45:31.330Z,40.07
2017-12-04T15:47:59.624Z,59.23
2017-12-04T15:50:27.129Z,43.43
2017-12-04T15:52:55.025Z,48.00
2017-12-04T15:55:23.318Z,55.53
2017-12-04T15:57:51.596Z,46.03
2017-12-04T16:00:19.115Z,43.97
2017-12-04T16:02:46.624Z,36.90
2017-12-04T16:05:14.127Z,37.30
2017-12-04T16:07:43.435Z,43.90
2017-12-04T16:10:10.951Z,47.40
2017-12-04T16:12:38.448Z,49.67
2017-12-04T16:15:05.940Z,41.10
2017-12-04T16:17:34.215Z,44.10
2017-12-04T16:20:02.502Z,45.63
2017-12-04T16:22:29.989Z,37.67
2017-12-04T16:24:58.007Z,36.30
2017-12-04T16:27:26.296Z,39.47
2017-12-04T16:29:53.880Z,25.57
2017-12-04T16:32:21.645Z,46.07
2017-12-04T16:34:49.510Z,48.93
2017-12-04T16:37:17.061Z,39.60
2017-12-04T16:39:44.580Z,52.20
2017-12-04T16:42:12.077Z,45.93
2017-12-04T16:44:41.170Z,46.70
2017-12-04T16:47:09.835Z,46.23
2017-12-04T16:49:37.821Z,44.70
2017-12-04T16:52:05.858Z,45.73
2017-12-04T16:54:33.422Z,55.50
2017-12-04T16:57:01.713Z,39.60
2017-12-04T16:59:29.943Z,49.63
2017-12-04T17:01:59.017Z,49.17
2017-12-04T17:04:28.158Z,47.70
2017-12-04T17:06:55.641Z,47.77
2017-12-04T17:09:23.147Z,57.73
2017-12-04T17:11:50.692Z,50.17
2017-12-04T17:14:18.315Z,50.50
2017-12-04T17:16:45.775Z,56.17
2017-12-04T17:19:13.275Z,48.53
2017-12-04T17:21:40.866Z,65.33
2017-12-04T17:24:08.329Z,77.07
2017-12-04T17:26:35.838Z,54.50
2017-12-04T17:29:03.344Z,52.93
2017-12-04T17:31:30.827Z,71.87
2017-12-04T17:33:58.318Z,57.17
2017-12-04T17:36:25.834Z,51.57
2017-12-04T17:38:54.124Z,50.13
2017-12-04T17:41:21.864Z,58.90
2017-12-04T17:43:50.166Z,53.93
2017-12-04T17:46:17.737Z,61.27
2017-12-04T17:48:45.226Z,54.37
2017-12-04T17:51:12.852Z,55.10
2017-12-04T17:53:40.479Z,54.13
2017-12-04T17:56:08.024Z,48.60
2017-12-04T17:58:35.588Z,56.83
2017-12-04T18:01:04.104Z,49.20
2017-12-04T18:03:31.657Z,40.53
2017-12-04T18:05:59.262Z,52.17
2017-12-04T18:08:26.954Z,57.93
2017-12-04T18:10:54.552Z,67.60
2017-12-04T18:13:22.196Z,60.97
2017-12-04T18:15:50.486Z,55.60
2017-12-04T18:18:18.128Z,56.37
2017-12-04T18:20:45.688Z,51.17
2017-12-04T18:23:13.245Z,42.00
2017-12-04T18:25:41.570Z,56.20
2017-12-04T18:28:09.074Z,52.40
2017-12-04T18:30:36.583Z,57.47
2017-12-04T18:33:04.070Z,57.70
2017-12-04T18:35:31.560Z,57.97
2017-12-04T18:37:59.843Z,55.97
2017-12-04T18:40:27.350Z,62.70
2017-12-04T18:42:54.856Z,55.53
2017-12-04T18:45:22.695Z,58.23
2017-12-04T18:47:51.177Z,51.47
2017-12-04T18:50:19.481Z,72.63
2017-12-04T18:52:46.971Z,66.97
2017-12-04T18:55:14.525Z,66.43
2017-12-04T18:57:42.021Z,65.17
2017-12-04T19:00:09.515Z,65.03
2017-12-04T19:02:37.037Z,62.60
2017-12-04T19:05:04.559Z,70.00
2017-12-04T19:07:32.843Z,56.10
2017-12-04T19:10:01.108Z,50.03
2017-12-04T19:12:28.595Z,50.27
2017-12-04T19:14:56.139Z,52.27
2017-12-04T19:17:23.662Z,51.13
2017-12-04T19:19:51.955Z,66.30
2017-12-04T19:22:19.442Z,54.80
2017-12-04T19:24:46.932Z,61.73
2017-12-04T19:27:15.229Z,56.13
2017-12-04T19:29:42.737Z,63.13
2017-12-04T19:32:10.284Z,64.03
2017-12-04T19:34:37.802Z,64.13
2017-12-04T19:37:06.053Z,48.40
2017-12-04T19:39:33.572Z,60.20
2017-12-04T19:42:02.244Z,53.73
2017-12-04T19:44:29.711Z,58.80
2017-12-04T19:46:57.205Z,61.67
2017-12-04T19:49:24.737Z,53.70
2017-12-04T19:51:52.237Z,60.23
2017-12-04T19:54:20.152Z,49.47
2017-12-04T19:56:47.655Z,55.63
2017-12-04T19:59:15.136Z,55.87
2017-12-04T20:01:42.632Z,49.50
2017-12-04T20:04:10.151Z,51.93
2017-12-04T20:06:38.471Z,43.50
2017-12-04T20:09:06.725Z,55.73
2017-12-04T20:11:34.698Z,44.30
2017-12-04T20:14:02.204Z,63.60
2017-12-04T20:16:29.931Z,47.97
2017-12-04T20:18:57.453Z,55.30
2017-12-04T20:21:24.954Z,51.60
2017-12-04T20:23:52.490Z,47.87
2017-12-04T20:26:19.976Z,46.10
2017-12-04T20:28:47.461Z,74.17
2017-12-04T20:31:15.021Z,60.43
2017-12-04T20:33:42.520Z,56.27
2017-12-04T20:36:10.032Z,63.80
2017-12-04T20:38:37.523Z,55.33
2017-12-04T20:41:05.035Z,64.90
2017-12-04T20:43:32.551Z,52.47
2017-12-04T20:46:00.037Z,51.40
2017-12-04T20:48:27.563Z,59.70
2017-12-04T20:50:55.057Z,67.83
2017-12-04T20:53:22.553Z,57.43
2017-12-04T20:55:50.823Z,60.93
2017-12-04T20:58:18.472Z,57.60
2017-12-04T21:00:46.037Z,54.53
2017-12-04T21:03:14.418Z,57.87
2017-12-04T21:05:41.988Z,61.77
2017-12-04T21:08:21.216Z,65.70
2017-12-04T21:11:00.466Z,65.07
2017-12-04T21:13:40.587Z,68.63
2017-12-04T21:16:27.595Z,48.70
2017-12-04T21:18:55.244Z,53.07
2017-12-04T21:21:22.856Z,71.50
2017-12-04T21:23:50.417Z,54.73
2017-12-04T21:26:17.965Z,56.87
2017-12-04T21:28:46.242Z,68.03
2017-12-04T21:31:14.547Z,53.67
2017-12-04T21:33:42.176Z,59.93
2017-12-04T21:36:10.495Z,49.37
2017-12-04T21:38:38.097Z,61.10
2017-12-04T21:41:05.610Z,66.33
2017-12-04T21:43:33.211Z,78.20
2017-12-04T21:46:00.721Z,50.33
2017-12-04T21:48:28.371Z,53.57
2017-12-04T21:50:56.768Z,52.00
2017-12-04T21:53:24.397Z,42.73
2017-12-04T21:55:51.984Z,53.80
2017-12-04T21:58:19.538Z,50.10
2017-12-04T22:00:47.121Z,54.63
2017-12-04T22:03:14.730Z,54.90
2017-12-04T22:05:43.045Z,57.53
2017-12-04T22:08:10.677Z,62.17
2017-12-04T22:10:39.063Z,62.67
2017-12-04T22:13:06.620Z,46.03
2017-12-04T22:15:34.920Z,47.87
2017-12-04T22:18:02.567Z,65.03
2017-12-04T22:20:30.041Z,47.57
2017-12-04T22:22:57.692Z,51.90
2017-12-04T22:25:25.298Z,53.63
2017-12-04T22:27:52.908Z,53.93
2017-12-04T22:30:20.507Z,57.67
2017-12-04T22:32:48.113Z,52.23
2017-12-04T22:35:16.454Z,50.20
2017-12-04T22:37:44.063Z,61.20
2017-12-04T22:40:12.417Z,52.53
2017-12-04T22:42:40.100Z,51.77
2017-12-04T22:45:07.695Z,53.30
2017-12-04T22:47:35.265Z,53.40
2017-12-04T22:50:02.787Z,49.50
2017-12-04T22:52:30.290Z,61.10
2017-12-04T22:54:57.956Z,55.37
2017-12-04T22:57:25.594Z,49.70
2017-12-04T22:59:53.189Z,50.30
2017-12-04T23:02:20.693Z,54.17
2017-12-04T23:04:48.304Z,57.13
2017-12-04T23:07:15.871Z,53.03
2017-12-04T23:09:43.474Z,50.23
2017-12-04T23:12:11.024Z,49.27
2017-12-04T23:14:38.627Z,60.13
2017-12-04T23:17:06.248Z,61.50
2017-12-04T23:19:33.873Z,58.90
2017-12-04T23:22:01.673Z,64.93
2017-12-04T23:24:29.192Z,64.43
2017-12-04T23:26:56.685Z,60.57
2017-12-04T23:29:24.511Z,55.97
2017-12-04T23:31:51.994Z,48.77
2017-12-04T23:34:20.244Z,50.90
2017-12-04T23:36:47.764Z,54.87
2017-12-04T23:39:15.255Z,54.20
2017-12-04T23:41:42.713Z,57.33
2017-12-04T23:44:10.188Z,54.90
2017-12-04T23:46:37.714Z,57.90
2017-12-04T23:49:05.191Z,54.07
2017-12-04T23:51:32.701Z,52.20
2017-12-04T23:54:00.418Z,49.83
2017-12-04T23:56:27.915Z,44.80
2017-12-04T23:58:55.418Z,51.00
